Time;durP1;ratioP1;P1;durP2;ratioP2;P2;SDS_P1;SDS_P2;PMS_P1;PMS_P2;Temp;Humidity;BMP_temperature;BMP_pressure;BME280_temperature;BME280_humidity;BME280_pressure;Samples;Min_cycle;Max_cycle;Signal;HPM_P1;HPM_P2
2022/11/08 00:02:00;;;;;;;2.23;1.13;;;14.70;99.90;;;;;;5045463;28;20462;-82
2022/11/08 00:04:25;;;;;;;2.40;1.00;;;14.70;99.90;;;;;;5061320;28;20124;-82
2022/11/08 00:15:07;;;;;;;3.85;1.20;;;14.60;99.90;;;;;;5063297;28;20060;-82
2022/11/08 00:17:33;;;;;;;1.63;0.90;;;14.60;99.90;;;;;;5043858;28;20032;-81
2022/11/08 00:19:58;;;;;;;2.30;0.80;;;14.60;99.90;;;;;;5060447;28;20434;-82
2022/11/08 00:22:24;;;;;;;2.13;0.90;;;14.50;99.90;;;;;;5064220;28;20156;-82
2022/11/08 00:24:50;;;;;;;2.40;1.00;;;14.50;99.90;;;;;;5058775;28;20039;-82
2022/11/08 00:27:26;;;;;;;2.85;1.05;;;14.50;99.90;;;;;;5049582;28;20040;-82
2022/11/08 00:29:51;;;;;;;2.22;0.90;;;14.50;99.90;;;;;;5059129;28;20545;-82
2022/11/08 00:32:20;;;;;;;2.37;1.00;;;14.50;99.90;;;;;;5043039;28;20021;-81
2022/11/08 00:34:47;;;;;;;1.67;0.98;;;14.50;99.90;;;;;;5052695;28;20046;-82
2022/11/08 00:37:17;;;;;;;1.98;0.82;;;14.40;99.90;;;;;;5065596;28;20059;-81
2022/11/08 00:39:43;;;;;;;1.70;0.80;;;14.40;99.90;;;;;;5058033;28;20432;-82
2022/11/08 00:42:09;;;;;;;2.23;0.80;;;14.40;99.90;;;;;;5067022;28;20048;-82
2022/11/08 00:44:35;;;;;;;2.45;0.90;;;14.40;99.90;;;;;;5050951;28;20044;-81
2022/11/08 00:47:01;;;;;;;1.65;0.88;;;14.40;99.90;;;;;;5053517;28;20392;-81
2022/11/08 00:49:26;;;;;;;2.30;0.90;;;14.40;99.90;;;;;;5038249;28;20036;-81
2022/11/08 00:51:52;;;;;;;2.35;0.98;;;14.40;99.90;;;;;;5057358;28;20029;-81
2022/11/08 00:54:19;;;;;;;4.40;0.90;;;14.30;99.90;;;;;;5055365;28;20044;-81
2022/11/08 00:56:46;;;;;;;1.00;0.73;;;14.30;99.90;;;;;;5071216;28;20161;-81
2022/11/08 00:59:14;;;;;;;2.33;0.90;;;14.30;99.90;;;;;;5065153;28;20031;-81
2022/11/08 01:01:40;;;;;;;1.67;0.90;;;14.30;99.90;;;;;;5059459;28;20028;-81
2022/11/08 01:04:08;;;;;;;1.23;0.80;;;14.20;99.90;;;;;;5046837;28;20037;-82
2022/11/08 01:06:34;;;;;;;2.03;0.77;;;14.20;99.90;;;;;;5061992;28;20285;-84
2022/11/08 01:09:00;;;;;;;2.50;1.08;;;14.10;99.90;;;;;;5075208;28;20066;-82
2022/11/08 01:11:26;;;;;;;1.98;1.02;;;14.10;99.90;;;;;;5049329;28;20028;-81
2022/11/08 01:13:56;;;;;;;2.63;1.17;;;14.10;99.90;;;;;;5069138;28;20067;-81
2022/11/08 01:16:23;;;;;;;2.17;1.00;;;14.00;99.90;;;;;;5062813;28;20071;-82
2022/11/08 01:18:51;;;;;;;2.45;1.00;;;14.00;99.90;;;;;;5021136;28;20270;-80
2022/11/08 01:21:17;;;;;;;1.45;0.80;;;14.00;99.90;;;;;;5057181;28;20037;-81
2022/11/08 01:23:44;;;;;;;3.42;0.90;;;14.00;99.90;;;;;;5060333;28;20028;-81
2022/11/08 01:26:21;;;;;;;1.57;0.90;;;14.00;99.90;;;;;;5057851;28;20031;-81
2022/11/08 01:28:47;;;;;;;1.88;0.95;;;14.00;99.90;;;;;;5047518;28;20291;-81
2022/11/08 01:31:18;;;;;;;1.75;0.80;;;14.00;99.90;;;;;;5057546;28;20017;-81
2022/11/08 01:33:44;;;;;;;2.72;1.02;;;14.00;99.90;;;;;;5030802;28;20054;-81
2022/11/08 01:36:13;;;;;;;5.10;1.10;;;14.00;99.90;;;;;;5061234;28;20025;-81
2022/11/08 01:38:39;;;;;;;1.70;0.90;;;13.90;99.90;;;;;;5062704;28;20058;-81
2022/11/08 01:41:05;;;;;;;1.92;0.95;;;13.90;99.90;;;;;;5065407;28;20381;-81
2022/11/08 01:43:40;;;;;;;1.52;1.00;;;13.90;99.90;;;;;;5055976;28;20560;-81
2022/11/08 01:46:15;;;;;;;3.70;1.00;;;13.90;99.90;;;;;;5072181;28;20114;-81
2022/11/08 01:49:18;;;;;;;2.38;0.95;;;13.90;99.90;;;;;;5045394;28;20492;-81
2022/11/08 01:52:26;;;;;;;2.88;0.98;;;13.80;99.90;;;;;;5031885;28;20090;-81
2022/11/08 01:55:18;;;;;;;2.35;1.05;;;13.80;99.90;;;;;;5063575;28;20044;-81
2022/11/08 01:57:51;;;;;;;2.00;0.90;;;13.80;99.90;;;;;;5054164;28;20232;-81
2022/11/08 02:00:20;;;;;;;2.13;0.87;;;13.80;99.90;;;;;;5063342;28;20020;-81
2022/11/08 02:02:55;;;;;;;2.40;0.90;;;13.80;99.90;;;;;;5057570;28;20584;-80
2022/11/08 02:05:23;;;;;;;1.00;0.85;;;13.80;99.90;;;;;;5050461;28;20009;-81
2022/11/08 02:08:18;;;;;;;2.60;0.98;;;13.70;99.90;;;;;;5033214;28;20039;-80
2022/11/08 02:10:48;;;;;;;3.35;0.95;;;13.70;99.90;;;;;;5048435;28;20228;-81
2022/11/08 02:13:18;;;;;;;1.83;0.93;;;13.70;99.90;;;;;;5040426;28;20476;-81
2022/11/08 02:15:44;;;;;;;1.52;0.90;;;13.70;99.90;;;;;;5058825;28;20039;-81
2022/11/08 02:18:10;;;;;;;1.35;0.85;;;13.60;99.90;;;;;;5064145;28;20059;-80
2022/11/08 02:20:36;;;;;;;2.17;1.00;;;13.60;99.90;;;;;;5055495;28;20028;-80
2022/11/08 02:23:15;;;;;;;1.60;1.00;;;13.60;99.90;;;;;;5038461;28;20031;-80
2022/11/08 02:25:40;;;;;;;1.98;1.00;;;13.60;99.90;;;;;;5045985;28;20056;-80
2022/11/08 02:28:06;;;;;;;2.88;0.90;;;13.60;99.90;;;;;;5046838;28;20086;-80
2022/11/08 02:30:34;;;;;;;2.90;0.90;;;13.50;99.90;;;;;;5051428;28;20079;-80
2022/11/08 02:32:59;;;;;;;2.55;1.00;;;13.60;99.90;;;;;;5053351;28;20272;-81
2022/11/08 02:35:26;;;;;;;2.07;1.00;;;13.50;99.90;;;;;;5059192;28;20025;-80
2022/11/08 02:37:52;;;;;;;2.42;1.10;;;13.50;99.90;;;;;;5026440;28;21023;-80
2022/11/08 02:40:18;;;;;;;2.15;0.93;;;13.50;99.90;;;;;;5059340;28;20024;-80
2022/11/08 02:42:43;;;;;;;1.57;0.90;;;13.40;99.90;;;;;;5057854;28;20324;-80
2022/11/08 02:45:09;;;;;;;1.65;1.00;;;13.50;99.90;;;;;;5051165;28;20393;-80
2022/11/08 02:47:35;;;;;;;1.83;1.00;;;13.50;99.90;;;;;;5048802;28;20547;-80
2022/11/08 02:50:01;;;;;;;1.85;0.90;;;13.50;99.90;;;;;;5068528;28;20020;-80
2022/11/08 02:52:26;;;;;;;1.75;1.10;;;13.50;99.90;;;;;;5047747;28;20086;-81
2022/11/08 02:54:52;;;;;;;1.10;0.83;;;13.40;99.90;;;;;;5044521;28;20040;-80
2022/11/08 02:57:18;;;;;;;1.63;1.10;;;13.40;99.90;;;;;;5057628;28;20217;-80
2022/11/08 02:59:43;;;;;;;1.77;0.93;;;13.40;99.90;;;;;;5046186;28;20051;-80
2022/11/08 03:02:09;;;;;;;1.60;0.80;;;13.30;99.90;;;;;;5055548;28;20020;-80
2022/11/08 03:04:34;;;;;;;2.03;0.85;;;13.30;99.90;;;;;;5067633;28;20106;-80
2022/11/08 03:07:00;;;;;;;2.87;1.00;;;13.20;99.90;;;;;;5055190;28;20090;-80
2022/11/08 03:09:26;;;;;;;2.60;0.88;;;13.20;99.90;;;;;;5044017;28;20032;-80
2022/11/08 03:11:52;;;;;;;1.40;0.90;;;13.20;99.90;;;;;;5056538;28;20730;-80
2022/11/08 03:14:18;;;;;;;1.67;1.00;;;13.10;99.90;;;;;;5063589;28;20074;-80
2022/11/08 03:16:43;;;;;;;2.38;0.90;;;13.10;99.90;;;;;;5052771;28;20025;-81
2022/11/08 03:19:10;;;;;;;2.30;1.10;;;13.00;99.90;;;;;;5066370;28;20496;-80
2022/11/08 03:21:36;;;;;;;1.27;0.90;;;13.00;99.90;;;;;;5052455;28;20477;-80
2022/11/08 03:24:03;;;;;;;1.10;0.90;;;13.00;99.90;;;;;;5040822;28;20032;-80
2022/11/08 03:26:30;;;;;;;2.07;1.00;;;12.90;99.80;;;;;;5062449;28;20028;-80
2022/11/08 03:28:56;;;;;;;1.98;0.90;;;12.90;99.80;;;;;;5041734;28;20050;-80
2022/11/08 03:31:22;;;;;;;1.60;0.80;;;12.90;99.90;;;;;;5067408;28;20033;-80
2022/11/08 03:33:47;;;;;;;2.57;0.90;;;12.80;99.80;;;;;;5053417;28;20244;-80
2022/11/08 03:36:13;;;;;;;1.80;0.90;;;12.80;99.80;;;;;;5067550;28;20035;-80
2022/11/08 03:38:39;;;;;;;2.25;1.00;;;12.70;99.70;;;;;;5018652;28;20031;-80
2022/11/08 03:41:04;;;;;;;1.17;0.70;;;12.70;99.80;;;;;;5065350;28;20031;-80
2022/11/08 03:43:30;;;;;;;1.20;0.70;;;12.70;99.80;;;;;;5059164;28;20036;-80
2022/11/08 03:45:56;;;;;;;2.30;0.90;;;12.60;99.80;;;;;;5072872;28;20664;-80
2022/11/08 03:48:22;;;;;;;1.73;0.80;;;12.60;99.90;;;;;;5054141;28;20081;-80
2022/11/08 03:50:49;;;;;;;2.08;0.90;;;12.50;99.90;;;;;;5063942;28;20028;-80
2022/11/08 03:53:15;;;;;;;2.50;0.80;;;12.50;99.90;;;;;;5056464;28;20042;-80
2022/11/08 03:55:40;;;;;;;2.15;0.80;;;12.50;99.90;;;;;;5026161;28;20024;-80
2022/11/08 03:58:06;;;;;;;1.23;0.70;;;12.50;99.90;;;;;;5053437;28;20484;-80
2022/11/08 04:00:32;;;;;;;1.30;0.90;;;12.50;99.90;;;;;;5071575;28;20016;-80
2022/11/08 04:03:02;;;;;;;1.30;1.00;;;12.40;99.90;;;;;;5071736;28;20400;-80
2022/11/08 04:05:30;;;;;;;1.75;0.88;;;12.40;99.90;;;;;;5055813;28;20024;-80
2022/11/08 04:07:57;;;;;;;2.40;0.82;;;12.40;99.90;;;;;;5046396;28;20660;-80
2022/11/08 04:10:23;;;;;;;1.98;0.90;;;12.50;99.90;;;;;;5045057;28;20025;-80
2022/11/08 04:15:33;;;;;;;3.20;1.00;;;12.40;99.90;;;;;;5057478;28;20035;-80
2022/11/08 04:23:31;;;;;;;1.77;0.98;;;12.40;99.90;;;;;;5063670;28;20456;-80
2022/11/08 04:25:59;;;;;;;1.20;1.00;;;12.40;99.90;;;;;;5034284;28;20440;-80
2022/11/08 04:28:27;;;;;;;1.57;1.00;;;12.40;99.90;;;;;;5051593;28;20480;-80
2022/11/08 04:31:01;;;;;;;1.65;0.80;;;12.50;99.90;;;;;;5053496;28;20041;-80
2022/11/08 04:33:27;;;;;;;1.35;0.80;;;12.50;99.90;;;;;;5066467;28;20650;-80
2022/11/08 04:35:53;;;;;;;1.10;0.70;;;12.50;99.90;;;;;;5040264;28;20024;-80
2022/11/08 04:38:19;;;;;;;1.20;0.90;;;12.40;99.90;;;;;;5069087;28;20305;-80
2022/11/08 04:40:46;;;;;;;1.95;0.80;;;12.50;99.90;;;;;;5044050;28;20016;-80
2022/11/08 04:43:12;;;;;;;1.88;0.80;;;12.40;99.90;;;;;;5024982;28;20294;-80
2022/11/08 04:45:38;;;;;;;2.25;0.90;;;12.40;99.90;;;;;;5028598;28;20536;-80
2022/11/08 04:48:04;;;;;;;2.00;0.95;;;12.40;99.90;;;;;;5063253;28;20260;-80
2022/11/08 04:50:29;;;;;;;0.90;0.70;;;12.40;99.90;;;;;;5039683;28;20028;-80
2022/11/08 04:52:55;;;;;;;1.00;0.73;;;12.40;99.90;;;;;;5065995;28;20069;-80
2022/11/08 04:55:22;;;;;;;2.73;1.00;;;12.40;99.90;;;;;;5053102;28;20021;-80
2022/11/08 04:57:48;;;;;;;1.00;0.68;;;12.40;99.90;;;;;;5028172;28;20032;-80
2022/11/08 05:00:15;;;;;;;1.05;0.85;;;12.40;99.90;;;;;;5070006;28;20055;-80
2022/11/08 05:02:41;;;;;;;1.30;1.00;;;12.40;99.90;;;;;;5059143;28;20512;-80
2022/11/08 05:05:07;;;;;;;2.03;0.87;;;12.40;99.90;;;;;;5061032;28;20036;-81
2022/11/08 05:07:33;;;;;;;1.48;0.80;;;12.40;99.90;;;;;;5064461;28;20492;-81
2022/11/08 05:09:58;;;;;;;1.40;0.93;;;12.40;99.90;;;;;;5062207;28;20116;-80
2022/11/08 05:12:24;;;;;;;2.60;0.90;;;12.50;99.90;;;;;;5042624;28;20081;-81
2022/11/08 05:14:49;;;;;;;1.50;0.90;;;12.50;99.90;;;;;;5062902;28;20565;-81
2022/11/08 05:17:15;;;;;;;1.33;0.90;;;12.60;99.90;;;;;;5043927;28;20069;-82
2022/11/08 05:25:09;;;;;;;1.63;0.88;;;12.80;99.90;;;;;;5066631;28;20024;-80
2022/11/08 05:27:35;;;;;;;0.97;0.83;;;12.80;99.90;;;;;;5028747;28;20405;-80
2022/11/08 05:30:01;;;;;;;2.75;0.90;;;12.90;99.90;;;;;;5045085;28;20062;-81
2022/11/08 05:32:26;;;;;;;0.95;0.80;;;12.90;99.90;;;;;;5056457;28;20024;-81
2022/11/08 05:34:52;;;;;;;1.40;0.83;;;12.90;99.90;;;;;;5059365;28;20567;-81
2022/11/08 05:37:17;;;;;;;2.70;1.00;;;12.90;99.90;;;;;;5058748;28;20032;-81
2022/11/08 05:39:43;;;;;;;1.02;0.77;;;13.00;99.90;;;;;;5059152;28;20332;-80
2022/11/08 05:42:09;;;;;;;1.73;1.17;;;13.00;99.90;;;;;;5054927;28;20020;-81
2022/11/08 05:44:35;;;;;;;1.55;1.02;;;13.10;99.90;;;;;;5046464;28;20058;-81
2022/11/08 05:47:00;;;;;;;2.43;1.17;;;13.10;99.90;;;;;;5071308;28;20028;-81
2022/11/08 05:49:26;;;;;;;1.80;1.00;;;13.10;99.90;;;;;;5044002;28;20027;-81
2022/11/08 05:51:52;;;;;;;1.90;0.73;;;13.10;99.90;;;;;;5053867;28;20104;-80
2022/11/08 05:54:17;;;;;;;2.28;1.25;;;13.10;99.90;;;;;;5071462;28;20043;-79
2022/11/08 05:56:43;;;;;;;2.17;1.13;;;13.20;99.90;;;;;;5035616;28;20257;-81
2022/11/08 05:59:08;;;;;;;1.63;1.10;;;13.20;99.90;;;;;;5046749;28;20020;-81
2022/11/08 06:01:34;;;;;;;2.03;1.20;;;13.30;99.90;;;;;;5045174;28;20214;-81
2022/11/08 06:04:00;;;;;;;3.00;1.20;;;13.30;99.90;;;;;;5044735;28;20020;-81
2022/11/08 06:06:26;;;;;;;2.10;1.10;;;13.30;99.90;;;;;;5050262;28;20115;-80
2022/11/08 06:08:51;;;;;;;2.90;1.33;;;13.40;99.90;;;;;;5046320;28;20037;-81
2022/11/08 06:11:23;;;;;;;1.70;1.20;;;13.40;99.90;;;;;;5069988;28;20035;-81
2022/11/08 06:13:51;;;;;;;1.75;1.30;;;13.50;99.90;;;;;;5040328;28;20032;-80
2022/11/08 06:16:18;;;;;;;2.50;1.13;;;13.60;99.90;;;;;;5037890;28;20019;-81
2022/11/08 06:18:44;;;;;;;2.17;1.08;;;13.60;99.90;;;;;;5047302;28;20020;-81
2022/11/08 06:21:12;;;;;;;2.07;1.10;;;13.60;99.90;;;;;;5065815;28;20293;-81
2022/11/08 06:23:39;;;;;;;2.08;1.10;;;13.60;99.90;;;;;;5040413;28;20027;-80
2022/11/08 06:26:04;;;;;;;1.73;1.10;;;13.60;99.90;;;;;;5068261;28;20515;-81
2022/11/08 06:28:30;;;;;;;4.20;1.05;;;13.60;99.90;;;;;;5057752;28;20024;-80
2022/11/08 06:31:00;;;;;;;2.70;1.07;;;13.60;99.90;;;;;;5043568;28;20075;-81
2022/11/08 06:33:26;;;;;;;1.42;0.90;;;13.60;99.90;;;;;;5065697;28;20056;-81
2022/11/08 06:35:51;;;;;;;2.42;1.10;;;13.60;99.90;;;;;;5054872;28;20017;-80
2022/11/08 06:38:17;;;;;;;2.80;1.20;;;13.60;99.90;;;;;;5048023;28;20400;-81
2022/11/08 06:40:43;;;;;;;1.20;0.98;;;13.60;99.90;;;;;;5059717;28;20052;-81
2022/11/08 06:43:10;;;;;;;1.20;0.97;;;13.70;99.90;;;;;;5046191;28;20703;-81
2022/11/08 06:45:36;;;;;;;2.42;1.10;;;13.70;99.90;;;;;;5046112;28;20031;-80
2022/11/08 06:48:04;;;;;;;2.90;1.15;;;13.70;99.90;;;;;;5065451;28;20032;-81
2022/11/08 06:50:32;;;;;;;4.35;1.17;;;13.70;99.90;;;;;;5038498;28;20480;-81
2022/11/08 06:53:06;;;;;;;1.85;1.00;;;13.70;99.90;;;;;;5051286;28;20048;-82
2022/11/08 06:55:33;;;;;;;2.17;1.00;;;13.70;99.90;;;;;;5053160;28;20044;-81
2022/11/08 06:57:58;;;;;;;2.53;0.90;;;13.70;99.90;;;;;;5041050;28;20035;-80
2022/11/08 07:00:25;;;;;;;1.80;1.08;;;13.70;99.90;;;;;;5027456;28;20020;-81
2022/11/08 07:02:55;;;;;;;2.78;1.10;;;13.70;99.90;;;;;;5069639;28;20505;-80
2022/11/08 07:05:21;;;;;;;1.73;1.07;;;13.70;99.90;;;;;;5054805;28;20575;-80
2022/11/08 07:07:51;;;;;;;3.10;1.15;;;13.70;99.90;;;;;;5051963;28;20033;-80
2022/11/08 07:10:21;;;;;;;2.05;0.98;;;13.80;99.90;;;;;;5045361;28;20268;-81
2022/11/08 07:12:49;;;;;;;1.90;1.20;;;13.80;99.90;;;;;;5052300;28;20028;-81
2022/11/08 07:15:15;;;;;;;1.42;0.95;;;13.80;99.90;;;;;;5053581;28;20121;-81
2022/11/08 07:17:41;;;;;;;1.93;0.90;;;13.80;99.90;;;;;;5041376;28;20020;-82
2022/11/08 07:20:07;;;;;;;1.30;0.90;;;13.80;99.90;;;;;;5055542;28;20021;-81
2022/11/08 07:22:33;;;;;;;2.50;0.90;;;13.80;99.90;;;;;;5067004;28;20016;-80
2022/11/08 07:24:59;;;;;;;1.52;0.98;;;13.90;99.90;;;;;;5052952;28;20021;-83
2022/11/08 07:27:25;;;;;;;2.45;1.00;;;13.90;99.90;;;;;;5075616;28;20426;-80
2022/11/08 07:29:51;;;;;;;1.63;0.83;;;13.90;99.90;;;;;;5076128;28;20031;-80
2022/11/08 07:32:17;;;;;;;1.60;1.05;;;14.00;99.90;;;;;;5037846;28;20176;-80
2022/11/08 07:34:42;;;;;;;1.40;1.00;;;14.00;99.90;;;;;;5068118;28;20028;-82
2022/11/08 07:37:08;;;;;;;1.58;0.95;;;14.10;99.90;;;;;;5062115;28;20595;-81
2022/11/08 07:39:33;;;;;;;2.03;1.00;;;14.10;99.90;;;;;;5047281;28;20024;-80
2022/11/08 07:41:59;;;;;;;1.43;1.00;;;14.10;99.90;;;;;;5049274;28;20408;-81
2022/11/08 07:44:25;;;;;;;2.63;1.00;;;14.10;99.90;;;;;;5050493;28;20017;-81
2022/11/08 07:46:50;;;;;;;2.20;1.10;;;14.10;99.90;;;;;;5056378;28;20036;-80
2022/11/08 07:49:16;;;;;;;1.80;1.20;;;14.20;99.90;;;;;;5053419;28;20123;-81
2022/11/08 07:51:41;;;;;;;2.23;1.20;;;14.20;99.90;;;;;;5048528;28;20024;-81
2022/11/08 07:54:07;;;;;;;4.32;1.20;;;14.30;99.90;;;;;;5034356;28;20032;-81
2022/11/08 07:56:34;;;;;;;2.80;1.37;;;14.30;99.90;;;;;;5031069;28;20157;-82
2022/11/08 07:58:59;;;;;;;2.95;1.10;;;14.30;99.90;;;;;;5051852;28;20119;-81
2022/11/08 08:01:25;;;;;;;2.17;1.20;;;14.40;99.90;;;;;;5062947;28;20300;-81
2022/11/08 08:03:51;;;;;;;3.55;1.25;;;14.40;99.90;;;;;;5045767;28;20127;-82
2022/11/08 08:06:16;;;;;;;1.47;1.00;;;14.50;99.90;;;;;;5064197;28;20036;-81
2022/11/08 08:08:42;;;;;;;1.83;1.23;;;14.50;99.90;;;;;;5053440;28;20665;-82
2022/11/08 08:11:09;;;;;;;2.95;1.20;;;14.60;99.90;;;;;;5068725;28;20043;-80
2022/11/08 08:13:34;;;;;;;1.75;1.10;;;14.70;99.90;;;;;;5067091;28;20039;-82
2022/11/08 08:16:00;;;;;;;2.40;1.10;;;14.70;99.90;;;;;;5067801;28;20476;-81
2022/11/08 08:18:29;;;;;;;2.47;1.08;;;14.70;99.90;;;;;;5042011;28;20098;-81
2022/11/08 08:20:55;;;;;;;1.70;1.23;;;14.80;99.90;;;;;;5053259;28;20056;-80
2022/11/08 08:23:21;;;;;;;2.13;1.10;;;14.90;99.90;;;;;;5065103;28;20807;-81
2022/11/08 08:25:46;;;;;;;1.85;1.00;;;14.90;99.90;;;;;;5074586;28;20060;-81
2022/11/08 08:28:12;;;;;;;2.77;1.40;;;15.00;99.90;;;;;;5040514;28;20028;-81
2022/11/08 08:30:39;;;;;;;2.30;1.30;;;15.00;99.90;;;;;;5070391;28;20012;-82
2022/11/08 08:33:11;;;;;;;1.85;1.00;;;15.10;99.90;;;;;;5061848;28;20498;-81
2022/11/08 08:35:37;;;;;;;1.88;1.10;;;15.10;99.90;;;;;;5065756;28;20024;-81
2022/11/08 08:38:04;;;;;;;1.95;1.20;;;15.20;99.90;;;;;;5066480;28;20020;-82
2022/11/08 08:40:30;;;;;;;2.03;1.08;;;15.30;99.90;;;;;;5066808;28;20009;-81
2022/11/08 08:43:02;;;;;;;2.23;1.40;;;15.30;99.90;;;;;;5061629;28;20024;-82
2022/11/08 08:45:28;;;;;;;2.50;1.20;;;15.40;99.90;;;;;;5056672;28;20058;-80
2022/11/08 08:47:55;;;;;;;2.08;1.10;;;15.50;99.90;;;;;;5064927;28;20044;-82
2022/11/08 08:50:23;;;;;;;1.42;1.10;;;15.60;99.90;;;;;;5037740;28;20780;-81
2022/11/08 08:52:49;;;;;;;2.25;1.23;;;15.60;99.90;;;;;;5067632;28;20028;-81
2022/11/08 08:55:15;;;;;;;1.70;1.00;;;15.60;99.90;;;;;;5062864;28;20016;-81
2022/11/08 08:57:47;;;;;;;2.95;1.40;;;15.70;99.90;;;;;;5065835;28;20477;-81
2022/11/08 09:00:16;;;;;;;2.42;1.25;;;15.70;99.90;;;;;;5058356;28;20028;-81
2022/11/08 09:02:42;;;;;;;2.20;1.30;;;15.80;99.90;;;;;;5067443;28;20016;-82
2022/11/08 09:05:09;;;;;;;1.92;1.10;;;15.90;99.90;;;;;;5043323;28;20033;-79
2022/11/08 09:07:35;;;;;;;1.35;0.88;;;15.90;99.90;;;;;;5037811;28;20248;-80
2022/11/08 09:10:01;;;;;;;3.67;1.00;;;16.00;99.90;;;;;;5061897;28;20103;-82
2022/11/08 09:12:27;;;;;;;1.90;1.00;;;16.10;99.90;;;;;;5048100;28;20183;-80
2022/11/08 09:14:53;;;;;;;1.67;1.05;;;16.30;99.90;;;;;;5051275;28;20039;-80
2022/11/08 09:17:19;;;;;;;2.03;1.07;;;16.50;99.90;;;;;;5042675;28;20450;-80
2022/11/08 09:19:45;;;;;;;2.75;1.10;;;16.70;99.90;;;;;;5062837;28;20147;-81
2022/11/08 09:22:11;;;;;;;1.20;1.00;;;16.90;99.90;;;;;;5040557;28;20029;-80
2022/11/08 09:24:37;;;;;;;1.77;1.10;;;17.20;99.90;;;;;;5065657;28;20504;-81
2022/11/08 09:27:02;;;;;;;1.63;1.07;;;17.50;99.90;;;;;;5061415;28;20040;-81
2022/11/08 09:29:32;;;;;;;2.53;1.13;;;17.70;99.90;;;;;;5061898;28;20258;-80
2022/11/08 09:31:58;;;;;;;2.27;1.20;;;18.00;99.90;;;;;;5052809;28;20598;-81
2022/11/08 09:34:24;;;;;;;2.35;1.10;;;18.20;99.90;;;;;;5061512;28;20245;-82
2022/11/08 09:36:50;;;;;;;1.67;1.10;;;18.30;99.90;;;;;;5072998;28;20033;-81
2022/11/08 09:39:16;;;;;;;1.80;1.30;;;18.40;99.90;;;;;;5029807;28;20032;-82
2022/11/08 09:41:41;;;;;;;2.53;1.05;;;18.40;99.50;;;;;;5065877;28;20444;-80
2022/11/08 09:44:46;;;;;;;1.80;0.90;;;18.30;99.00;;;;;;5070196;28;20536;-81
2022/11/08 09:47:28;;;;;;;2.50;1.10;;;18.30;97.90;;;;;;5049821;28;20127;-81
2022/11/08 09:50:17;;;;;;;3.50;1.27;;;18.20;97.00;;;;;;5067947;28;20082;-82
2022/11/08 09:52:49;;;;;;;2.60;1.30;;;18.10;95.90;;;;;;5040502;28;20020;-81
2022/11/08 09:55:30;;;;;;;2.67;1.20;;;18.00;97.10;;;;;;5050028;28;20343;-81
2022/11/08 09:58:18;;;;;;;1.90;1.15;;;17.90;95.70;;;;;;5076900;28;20062;-81
2022/11/08 10:00:44;;;;;;;1.63;1.00;;;17.80;97.50;;;;;;5071643;28;20012;-81
2022/11/08 10:03:15;;;;;;;1.60;1.10;;;17.70;98.10;;;;;;5055627;28;20388;-81
2022/11/08 10:06:18;;;;;;;1.92;1.20;;;17.70;97.70;;;;;;5069201;28;20020;-81
2022/11/08 10:09:10;;;;;;;2.77;1.27;;;17.70;96.40;;;;;;5030191;28;20044;-80
2022/11/08 10:11:57;;;;;;;2.17;1.30;;;17.70;96.40;;;;;;5058796;28;20205;-82
2022/11/08 10:14:41;;;;;;;2.22;1.20;;;17.70;97.50;;;;;;5062554;28;20429;-81
2022/11/08 10:17:30;;;;;;;3.05;1.33;;;17.60;96.60;;;;;;5057081;28;20028;-81
2022/11/08 10:20:06;;;;;;;2.15;1.00;;;17.60;96.30;;;;;;5047423;28;20085;-81
2022/11/08 10:22:52;;;;;;;2.93;1.30;;;17.60;97.90;;;;;;5063948;28;20176;-80
2022/11/08 10:25:32;;;;;;;2.22;1.20;;;17.60;95.80;;;;;;5040227;28;20543;-81
2022/11/08 10:28:00;;;;;;;1.45;1.00;;;17.60;97.30;;;;;;5065514;28;20020;-82
2022/11/08 10:30:33;;;;;;;2.70;1.40;;;17.60;97.80;;;;;;5060690;28;20256;-81
2022/11/08 10:32:59;;;;;;;2.33;1.10;;;17.50;97.10;;;;;;5045240;28;20085;-81
2022/11/08 10:35:43;;;;;;;2.77;1.20;;;17.60;97.40;;;;;;5045158;28;20019;-81
2022/11/08 10:38:29;;;;;;;2.63;1.20;;;17.60;96.30;;;;;;5067094;28;20555;-82
2022/11/08 10:41:19;;;;;;;2.28;1.30;;;17.50;97.00;;;;;;5046450;28;20012;-81
2022/11/08 10:43:58;;;;;;;2.40;1.40;;;17.50;97.40;;;;;;5054912;28;20024;-82
2022/11/08 10:46:39;;;;;;;2.47;1.10;;;17.50;96.40;;;;;;5053239;28;20617;-82
2022/11/08 10:49:11;;;;;;;2.57;1.30;;;17.60;97.00;;;;;;5037412;28;20606;-81
2022/11/08 10:51:37;;;;;;;2.92;1.30;;;17.60;96.90;;;;;;5060382;28;20013;-82
2022/11/08 10:54:02;;;;;;;1.75;1.10;;;17.70;97.90;;;;;;5065852;28;20068;-82
2022/11/08 10:56:29;;;;;;;2.27;1.13;;;17.70;97.70;;;;;;5041017;28;20427;-81
2022/11/08 10:58:55;;;;;;;1.98;1.17;;;17.70;97.70;;;;;;5068311;28;20102;-81
2022/11/08 11:01:22;;;;;;;3.27;1.50;;;17.70;97.50;;;;;;5063443;28;20186;-82
2022/11/08 11:03:50;;;;;;;2.63;1.40;;;17.80;97.30;;;;;;5057247;28;20108;-82
2022/11/08 11:06:34;;;;;;;3.75;1.63;;;17.80;97.90;;;;;;5065229;28;20020;-84
2022/11/08 11:09:03;;;;;;;2.42;1.40;;;18.00;95.80;;;;;;5061783;28;20028;-81
2022/11/08 11:11:32;;;;;;;3.37;1.70;;;18.10;98.30;;;;;;5045022;28;20301;-81
2022/11/08 11:14:11;;;;;;;3.08;1.50;;;18.30;98.30;;;;;;5050967;28;20036;-82
2022/11/08 11:16:53;;;;;;;2.63;1.40;;;18.50;97.70;;;;;;5053285;28;20055;-81
2022/11/08 11:19:18;;;;;;;2.47;1.10;;;18.70;98.80;;;;;;5037274;28;20121;-81
2022/11/08 11:22:16;;;;;;;2.30;1.23;;;18.90;98.40;;;;;;5066668;28;20435;-81
2022/11/08 11:24:48;;;;;;;3.13;1.30;;;18.90;96.70;;;;;;5057106;28;20033;-81
2022/11/08 11:27:23;;;;;;;2.75;1.33;;;19.00;96.70;;;;;;5046850;28;20055;-82
2022/11/08 11:30:08;;;;;;;2.85;1.30;;;19.00;95.90;;;;;;5064874;28;20032;-82
2022/11/08 11:32:35;;;;;;;4.28;1.70;;;18.90;96.80;;;;;;5050633;28;20153;-82
2022/11/08 11:35:04;;;;;;;3.87;1.57;;;18.90;96.90;;;;;;5051871;28;20031;-82
2022/11/08 11:37:41;;;;;;;3.88;1.50;;;18.90;96.50;;;;;;5063991;28;20210;-81
2022/11/08 11:40:36;;;;;;;2.53;1.10;;;18.90;95.70;;;;;;5070016;28;20027;-82
2022/11/08 11:43:32;;;;;;;2.25;1.20;;;18.90;95.60;;;;;;5048607;28;20044;-82
2022/11/08 11:46:08;;;;;;;3.95;1.20;;;18.90;95.50;;;;;;5065701;28;20082;-81
2022/11/08 11:48:43;;;;;;;1.97;1.10;;;18.90;96.60;;;;;;5049020;28;20141;-82
2022/11/08 11:51:12;;;;;;;1.60;1.08;;;18.90;96.20;;;;;;5040445;28;20033;-81
2022/11/08 11:53:38;;;;;;;2.28;1.17;;;18.90;96.00;;;;;;5066705;28;20044;-82
2022/11/08 11:56:26;;;;;;;1.83;1.02;;;18.90;96.10;;;;;;5069208;28;20035;-81
2022/11/08 11:59:19;;;;;;;1.70;0.90;;;18.90;94.50;;;;;;5056963;28;20119;-79
2022/11/08 12:02:06;;;;;;;2.40;1.20;;;18.90;95.90;;;;;;5068351;28;20013;-82
2022/11/08 12:05:09;;;;;;;2.38;1.10;;;18.80;95.70;;;;;;5068571;28;20267;-83
2022/11/08 12:07:43;;;;;;;1.92;1.00;;;18.80;95.50;;;;;;5051851;28;20040;-82
2022/11/08 12:10:21;;;;;;;3.63;1.30;;;18.80;95.60;;;;;;5068149;28;20040;-81
2022/11/08 12:12:53;;;;;;;2.53;1.20;;;18.80;95.40;;;;;;5073226;28;20111;-81
2022/11/08 12:15:33;;;;;;;3.20;1.30;;;18.80;96.60;;;;;;5045172;28;20068;-82
2022/11/08 12:18:18;;;;;;;3.60;1.30;;;18.80;95.60;;;;;;5070458;28;20039;-82
2022/11/08 12:21:13;;;;;;;2.10;1.20;;;18.90;96.20;;;;;;5045141;28;20024;-81
2022/11/08 12:23:57;;;;;;;2.58;1.30;;;18.90;95.50;;;;;;5060601;28;20021;-81
2022/11/08 12:26:54;;;;;;;2.58;1.00;;;19.10;97.40;;;;;;5046392;28;20490;-81
2022/11/08 12:29:38;;;;;;;1.50;1.00;;;19.40;97.20;;;;;;5042318;28;20056;-81
2022/11/08 12:32:30;;;;;;;3.38;1.27;;;19.60;97.50;;;;;;5070455;28;20461;-81
2022/11/08 12:35:08;;;;;;;2.70;1.00;;;19.80;96.90;;;;;;5083854;28;20492;-82
2022/11/08 12:37:36;;;;;;;3.15;1.20;;;20.00;96.50;;;;;;5053380;28;20565;-81
2022/11/08 12:40:17;;;;;;;3.08;1.42;;;20.10;96.80;;;;;;5071454;28;20102;-81
2022/11/08 12:42:45;;;;;;;3.27;1.00;;;20.10;95.60;;;;;;5070087;28;20225;-82
2022/11/08 12:45:44;;;;;;;2.00;1.10;;;20.10;96.40;;;;;;5047344;28;20492;-80
2022/11/08 12:48:34;;;;;;;1.95;1.00;;;20.20;94.60;;;;;;5063942;28;20032;-81
2022/11/08 12:51:06;;;;;;;2.17;1.02;;;20.20;96.80;;;;;;5062774;28;20037;-82
2022/11/08 12:53:31;;;;;;;2.30;1.10;;;20.30;96.90;;;;;;5035970;28;20309;-81
2022/11/08 12:55:57;;;;;;;2.30;1.20;;;20.30;96.80;;;;;;5059813;28;20029;-81
2022/11/08 12:58:46;;;;;;;1.80;1.10;;;20.30;96.50;;;;;;5071132;28;20024;-81
2022/11/08 13:01:17;;;;;;;3.33;1.10;;;20.40;95.30;;;;;;5045471;28;20115;-80
2022/11/08 13:03:44;;;;;;;2.35;1.17;;;20.40;95.90;;;;;;5074763;28;20468;-80
2022/11/08 13:06:31;;;;;;;1.43;1.10;;;20.30;95.80;;;;;;5052138;28;20044;-81
2022/11/08 13:09:13;;;;;;;2.35;1.10;;;20.30;94.60;;;;;;5043074;28;20111;-81
2022/11/08 13:11:51;;;;;;;2.38;1.30;;;20.40;94.70;;;;;;5052977;28;20090;-82
2022/11/08 13:14:18;;;;;;;2.20;1.23;;;20.30;94.90;;;;;;5054447;28;20116;-81
2022/11/08 13:17:05;;;;;;;2.83;1.20;;;20.40;96.10;;;;;;5030575;28;20020;-81
2022/11/08 13:19:46;;;;;;;2.30;1.10;;;20.40;96.00;;;;;;5068867;28;20164;-81
2022/11/08 13:22:30;;;;;;;1.95;1.00;;;20.60;95.20;;;;;;5070167;28;20044;-82
2022/11/08 13:24:58;;;;;;;2.38;1.10;;;20.60;95.00;;;;;;5055646;28;20395;-81
2022/11/08 13:27:34;;;;;;;1.77;1.00;;;20.70;95.80;;;;;;5069301;28;20021;-81